Nearby METAR Reports

 

KSJC - San Jose, California, USA
Distance from station: NE 14km
Actualizacin: 28/09/2022 08:53
Few Clouds
Few Clouds
 Viento del NNO
Viento: NNO 11 km/h
Temperatura: 16°C
Roco: 13°C
Humedad: 83%
Barmetro: 1016.3 hPa
Clouds: Few Clouds
Visibility: 16 km
Cloud details: Few Clouds 366 m
2022/09/28 06:53 KSJC 280653Z 33006KT 10SM FEW012 16/13 A3001 RMK AO2 SLP162 T01610133
KNUQ - Moffett Nas/Mtn, California, USA
Distance from station: N 14km
Actualizacin: 28/09/2022 09:35
Despejado
Despejado
 Viento del calm
Viento: Calma
Temperatura: 15°C
Roco: 12°C
Humedad: 82%
Barmetro: 1016.3 hPa
Clouds: Despejado
Visibility: 16 km
2022/09/28 07:35 KNUQ 280735Z AUTO 00000KT 10SM CLR 15/12 A3001 RMK AO2
 
KPAO - Palo Alto, California, USA
Distance from station: NNO 23km
Actualizacin: 28/09/2022 01:47
NOT Current
Despejado
Despejado
 Viento del NNO
Viento: NNO 19 km/h
Temperatura: 20°C
Roco: 13°C
Humedad: 64%
Barmetro: 1014.9 hPa
Clouds: Despejado
Visibility: 16 km
2022/09/27 23:47 KPAO 272347Z 33010KT 10SM SKC 20/13 A2997
KRHV - San Jose/Reid, California, USA
Distance from station: ENE 19km
Actualizacin: 28/09/2022 06:47
NOT Current
Despejado
Despejado
 Viento del ONO
Viento: ONO 7 km/h
Temperatura: 17°C
Roco: 13°C
Humedad: 77%
Barmetro: 1015.9 hPa
Clouds: Despejado
Visibility: 16 km
2022/09/28 04:47 KRHV 280447Z 30004KT 10SM SKC 17/13 A3000 RMK LAST
 
KOAK - Oakland, California, USA
Distance from station: NNO 50km
Actualizacin: 28/09/2022 09:30
Parcialmente nuboso
Parcialmente nuboso
 Viento del O
Viento: O 15 km/h
Temperatura: 16°C
Roco: 13°C
Humedad: 83%
Barmetro: 1016.3 hPa
Clouds: Parcialmente nuboso
Visibility: 16 km
Cloud details: Few Clouds 244 m
Parcialmente nuboso 305 m
Parcialmente nuboso 6706 m
2022/09/28 07:30 KOAK 280730Z 27008KT 10SM FEW008 SCT010 SCT220 16/13 A3001 RMK AO2 T01560128
KSQL - San Carlos Airpo, California, USA
Distance from station: NO 34km
Actualizacin: 28/09/2022 09:35
Despejado
Despejado
 Viento del calm
Viento: Calma
Temperatura: 15°C
Roco: 12°C
Humedad: 82%
Barmetro: 1016.6 hPa
Clouds: Despejado
Visibility: 16 km
2022/09/28 07:35 KSQL 280735Z AUTO 00000KT 10SM CLR 15/12 A3002 RMK AO2
 
KSFO - San Francisco, California, USA
Distance from station: NO 49km
Actualizacin: 28/09/2022 08:56
Few Clouds
Few Clouds
 Viento del O
Viento: O 15 km/h
Temperatura: 16°C
Roco: 13°C
Humedad: 83%
Barmetro: 1016.3 hPa
Clouds: Few Clouds
Visibility: 16 km
Cloud details: Few Clouds 274 m
2022/09/28 06:56 KSFO 280656Z 28008KT 10SM FEW009 16/13 A3001 RMK AO2 SLP161 T01560128
KE16 - San Martin, California, USA
Distance from station: ESE 43km
Actualizacin: 28/09/2022 09:15
Despejado
Despejado
 Viento del NNO
Viento: NNO 15 km/h
Temperatura: 15°C
Roco: 13°C
Humedad: 88%
Barmetro: 1016.3 hPa
Clouds: Despejado
Visibility: 16 km
2022/09/28 07:15 KE16 280715Z AUTO 34008KT 10SM CLR 15/13 A3001 RMK AO2 PWINO PNO
 
KWVI - Watsonville, California, USA
Distance from station: SSE 44km
Actualizacin: 28/09/2022 08:53
Despejado
Despejado
 Viento del calm
Viento: Calma
Temperatura: 13°C
Roco: 12°C
Humedad: 94%
Barmetro: 1015.6 hPa
Clouds: Despejado
Visibility: 16 km
2022/09/28 06:53 KWVI 280653Z AUTO 00000KT 10SM CLR 13/12 A2999 RMK AO2 SLP156 T01330117
KHAF - Half Moon Bay, California, USA
Distance from station: ONO 50km
Actualizacin: 28/09/2022 09:35
Cubierto
Cubierto
 Viento del NNO
Viento: NNO 13 km/h
Temperatura: 15°C
Roco: 15°C
Humedad: 100%
Barmetro: 1016.6 hPa
Clouds: Cubierto
Visibility: 16 km
Cloud details: Cubierto 305 m
2022/09/28 07:35 KHAF 280735Z AUTO 33007KT 10SM OVC010 15/15 A3002 RMK AO2
 
KHWD - Hayward, California, USA
Distance from station: N 44km
Actualizacin: 28/09/2022 09:14
Muy nuboso
Muy nuboso
 Viento del calm
Viento: Calma
Temperatura: 16°C
Roco: 13°C
Humedad: 83%
Barmetro: 1016.3 hPa
Clouds: Muy nuboso
Visibility: 16 km
Cloud details: Muy nuboso 396 m
2022/09/28 07:14 KHWD 280714Z 00000KT 10SM BKN013 16/13 A3001 RMK AO2 T01560133
KLVK - Livermore, California, USA
Distance from station: NNE 51km
Actualizacin: 28/09/2022 08:53
Despejado
Despejado
 Viento del NO
Viento: NO 11 km/h
Temperatura: 15°C
Roco: 12°C
Humedad: 82%
Barmetro: 1015.9 hPa
Clouds: Despejado
Visibility: 16 km
2022/09/28 06:53 KLVK 280653Z AUTO 31006KT 10SM CLR 15/12 A3000 RMK AO2 SLP154 T01500122